(°C)
24°
25°
26°
28°
29°
30°
31°
(°C)
28°
28°
29°
30°
31°
33°
34°
ЮЗ
ЮЗ
ЮЗ
ЮЗ
ЮЗ
ЮЗ
ЮЗ
(км/ч)
8-16
9-19
10-21
11-23
12-23
12-24
12-24
(мм)
0
0
0
0
0
0
0
(%)
0
0
0
7
14
21
20

Высота солнцестояния

/ 11.4°
sun-icon
UV 8
05:40
20:17
Последняя четверть Луны (266°)
02:01
12:21

METAR для Wilmington Manor (KILG)

Время Условия Температура/
Точка росы
Ветер Видимость Погода Облачность Давление Изменить Необработанный
VFR 23.3°C / 18.3°C 230º 4kt >10km - Few Clouds 10000ft - KILG 221015Z 23004KT 10SM FEW100 23/18 A3003 RMK AO2 T02330183
VFR 23.9°C / 18.3°C 230º variable 200º to 260º 7kt >10km - Clear 1016 - KILG 220951Z 23007KT 200V260 10SM CLR 24/18 A3003 RMK AO2 SLP167 T02390183
VFR 23.9°C / 19.4°C 170º 6kt >10km - Clear 1016 - KILG 220851Z 17006KT 10SM CLR 24/19 A3002 RMK AO2 SLP166 T02390194 55004
VFR 23.3°C / 19.4°C 160º 4kt >10km - Clear 1015 - KILG 220751Z 16004KT 10SM CLR 23/19 A3000 RMK AO2 SLP158 T02330194
VFR 25°C / 19.4°C variable 0kt >10km - Clear 1016 - KILG 220651Z 00000KT 10SM CLR 25/19 A3001 RMK AO2 SLP162 T02500194
VFR 25.6°C / 20°C 250º 6kt >10km - Clear 1017 - KILG 220551Z 25006KT 10SM CLR 26/20 A3004 RMK AO2 SLP170 T02560200 10267 20239 58012
VFR 24.4°C / 20°C 180º 5kt >10km - Clear 1017 - KILG 220451Z 18005KT 10SM CLR 24/20 A3006 RMK AO2 SLP177 T02440200 403390200
VFR 26.1°C / 20°C 250º 3kt >10km - Clear 1017 - KILG 220351Z 25003KT 10SM CLR 26/20 A3006 RMK AO2 SLP177 T02610200
VFR 25°C / 19.4°C 200º 5kt >10km - Clear 1018 - KILG 220251Z 20005KT 10SM CLR 25/19 A3007 RMK AO2 SLP182 T02500194 53024
VFR 25°C / 19.4°C 140º 3kt >10km - Clear 1017 - KILG 220151Z 14003KT 10SM CLR 25/19 A3005 RMK AO2 SLP176 T02500194
VFR 25°C / 18.9°C 160º 5kt >10km - Clear 1016 - KILG 220051Z 16005KT 10SM CLR 25/19 A3001 RMK AO2 SLP160 T02500189
VFR 26.7°C / 18.9°C 150º 9kt >10km - Clear 1015 - KILG 212351Z AUTO 15009KT 10SM CLR 27/19 A3000 RMK AO2 SLP158 T02670189 10339 20267 58005
VFR 29.4°C / 19.4°C 150º 8kt >10km - Clear 1016 - KILG 212251Z 15008KT 10SM CLR 29/19 A3001 RMK AO2 SLP162 T02940194
VFR 32.8°C / 19.4°C 250º 10kt >10km - Clear 1016 - KILG 212151Z 25010KT 10SM CLR 33/19 A3002 RMK AO2 SLP163 T03280194
VFR 33.3°C / 20°C 240º 8kt Gust 16kt >10km - Clear 1016 - KILG 212051Z 24008G16KT 10SM CLR 33/20 A3002 RMK AO2 SLP163 T03330200 56007
VFR 33.3°C / 20°C 210º 9kt >10km - Clear 1016 - KILG 211951Z 21009KT 10SM CLR 33/20 A3003 RMK AO2 SLP166 T03330200
VFR 33.3°C / 20.6°C 190º variable 160º to 240º 8kt >10km - Clear 1016 - KILG 211851Z 19008KT 160V240 10SM CLR 33/21 A3003 RMK AO2 SLP167 T03330206
VFR 32.2°C / 21.1°C 150º 10kt >10km - Clear 1017 - KILG 211751Z 15010KT 10SM CLR 32/21 A3004 RMK AO2 SLP170 T03220211 10328 20233 58001
VFR 31.7°C / 21.7°C 170º 10kt >10km - Clear 1017 - KILG 211651Z 17010KT 10SM CLR 32/22 A3004 RMK AO2 SLP172 T03170217
VFR 31.1°C / 21.7°C 150º 6kt >10km - Clear 1017 - KILG 211551Z 15006KT 10SM CLR 31/22 A3005 RMK AO2 SLP173 T03110217
VFR 30°C / 22.2°C 150º 6kt >10km - Clear 1017 - KILG 211451Z 15006KT 9SM CLR 30/22 A3004 RMK AO2 SLP171 T03000222 53003
VFR 28.9°C / 21.1°C 310º 3kt >10km - Clear 1017 - KILG 211351Z 31003KT 10SM CLR 29/21 A3004 RMK AO2 SLP170 T02890211
VFR 25.6°C / 20.6°C variable 0kt >10km - Clear 1016 - KILG 211251Z 00000KT 8SM CLR 26/21 A3003 RMK AO2 SLP169 T02560206
MVFR 23.3°C / 20°C variable 3kt 8000m Haze Vertical Visibility of 0ft. 1016 - KILG 211151Z VRB03KT 5SM HZ CLR 23/20 A3003 RMK AO2 SLP168 T02330200 10233 20200 53028

VFR

23.3°C / 18.3°C

[Больше]
Ветер 230º 4kt
Видимость >10km
Погода -
Облачность Few Clouds 10000ft
Давление
Изменить -
Необработанный KILG 221015Z 23004KT 10SM FEW100 23/18 A3003 RMK AO2 T02330183

VFR

23.9°C / 18.3°C

[Больше]
Ветер 230º variable 200º to 260º 7kt
Видимость >10km
Погода -
Облачность Clear
Давление 1016
Изменить -
Необработанный KILG 220951Z 23007KT 200V260 10SM CLR 24/18 A3003 RMK AO2 SLP167 T02390183

VFR

23.9°C / 19.4°C

[Больше]
Ветер 170º 6kt
Видимость >10km
Погода -
Облачность Clear
Давление 1016
Изменить -
Необработанный KILG 220851Z 17006KT 10SM CLR 24/19 A3002 RMK AO2 SLP166 T02390194 55004

VFR

23.3°C / 19.4°C

[Больше]
Ветер 160º 4kt
Видимость >10km
Погода -
Облачность Clear
Давление 1015
Изменить -
Необработанный KILG 220751Z 16004KT 10SM CLR 23/19 A3000 RMK AO2 SLP158 T02330194

VFR

25°C / 19.4°C

[Больше]
Ветер variable 0kt
Видимость >10km
Погода -
Облачность Clear
Давление 1016
Изменить -
Необработанный KILG 220651Z 00000KT 10SM CLR 25/19 A3001 RMK AO2 SLP162 T02500194

VFR

25.6°C / 20°C

[Больше]
Ветер 250º 6kt
Видимость >10km
Погода -
Облачность Clear
Давление 1017
Изменить -
Необработанный KILG 220551Z 25006KT 10SM CLR 26/20 A3004 RMK AO2 SLP170 T02560200 10267 20239 58012

VFR

24.4°C / 20°C

[Больше]
Ветер 180º 5kt
Видимость >10km
Погода -
Облачность Clear
Давление 1017
Изменить -
Необработанный KILG 220451Z 18005KT 10SM CLR 24/20 A3006 RMK AO2 SLP177 T02440200 403390200

VFR

26.1°C / 20°C

[Больше]
Ветер 250º 3kt
Видимость >10km
Погода -
Облачность Clear
Давление 1017
Изменить -
Необработанный KILG 220351Z 25003KT 10SM CLR 26/20 A3006 RMK AO2 SLP177 T02610200

VFR

25°C / 19.4°C

[Больше]
Ветер 200º 5kt
Видимость >10km
Погода -
Облачность Clear
Давление 1018
Изменить -
Необработанный KILG 220251Z 20005KT 10SM CLR 25/19 A3007 RMK AO2 SLP182 T02500194 53024

VFR

25°C / 19.4°C

[Больше]
Ветер 140º 3kt
Видимость >10km
Погода -
Облачность Clear
Давление 1017
Изменить -
Необработанный KILG 220151Z 14003KT 10SM CLR 25/19 A3005 RMK AO2 SLP176 T02500194

VFR

25°C / 18.9°C

[Больше]
Ветер 160º 5kt
Видимость >10km
Погода -
Облачность Clear
Давление 1016
Изменить -
Необработанный KILG 220051Z 16005KT 10SM CLR 25/19 A3001 RMK AO2 SLP160 T02500189

VFR

26.7°C / 18.9°C

[Больше]
Ветер 150º 9kt
Видимость >10km
Погода -
Облачность Clear
Давление 1015
Изменить -
Необработанный KILG 212351Z AUTO 15009KT 10SM CLR 27/19 A3000 RMK AO2 SLP158 T02670189 10339 20267 58005

VFR

29.4°C / 19.4°C

[Больше]
Ветер 150º 8kt
Видимость >10km
Погода -
Облачность Clear
Давление 1016
Изменить -
Необработанный KILG 212251Z 15008KT 10SM CLR 29/19 A3001 RMK AO2 SLP162 T02940194

VFR

32.8°C / 19.4°C

[Больше]
Ветер 250º 10kt
Видимость >10km
Погода -
Облачность Clear
Давление 1016
Изменить -
Необработанный KILG 212151Z 25010KT 10SM CLR 33/19 A3002 RMK AO2 SLP163 T03280194

VFR

33.3°C / 20°C

[Больше]
Ветер 240º 8kt Gust 16kt
Видимость >10km
Погода -
Облачность Clear
Давление 1016
Изменить -
Необработанный KILG 212051Z 24008G16KT 10SM CLR 33/20 A3002 RMK AO2 SLP163 T03330200 56007

VFR

33.3°C / 20°C

[Больше]
Ветер 210º 9kt
Видимость >10km
Погода -
Облачность Clear
Давление 1016
Изменить -
Необработанный KILG 211951Z 21009KT 10SM CLR 33/20 A3003 RMK AO2 SLP166 T03330200

VFR

33.3°C / 20.6°C

[Больше]
Ветер 190º variable 160º to 240º 8kt
Видимость >10km
Погода -
Облачность Clear
Давление 1016
Изменить -
Необработанный KILG 211851Z 19008KT 160V240 10SM CLR 33/21 A3003 RMK AO2 SLP167 T03330206

VFR

32.2°C / 21.1°C

[Больше]
Ветер 150º 10kt
Видимость >10km
Погода -
Облачность Clear
Давление 1017
Изменить -
Необработанный KILG 211751Z 15010KT 10SM CLR 32/21 A3004 RMK AO2 SLP170 T03220211 10328 20233 58001

VFR

31.7°C / 21.7°C

[Больше]
Ветер 170º 10kt
Видимость >10km
Погода -
Облачность Clear
Давление 1017
Изменить -
Необработанный KILG 211651Z 17010KT 10SM CLR 32/22 A3004 RMK AO2 SLP172 T03170217

VFR

31.1°C / 21.7°C

[Больше]
Ветер 150º 6kt
Видимость >10km
Погода -
Облачность Clear
Давление 1017
Изменить -
Необработанный KILG 211551Z 15006KT 10SM CLR 31/22 A3005 RMK AO2 SLP173 T03110217

VFR

30°C / 22.2°C

[Больше]
Ветер 150º 6kt
Видимость >10km
Погода -
Облачность Clear
Давление 1017
Изменить -
Необработанный KILG 211451Z 15006KT 9SM CLR 30/22 A3004 RMK AO2 SLP171 T03000222 53003

VFR

28.9°C / 21.1°C

[Больше]
Ветер 310º 3kt
Видимость >10km
Погода -
Облачность Clear
Давление 1017
Изменить -
Необработанный KILG 211351Z 31003KT 10SM CLR 29/21 A3004 RMK AO2 SLP170 T02890211

VFR

25.6°C / 20.6°C

[Больше]
Ветер variable 0kt
Видимость >10km
Погода -
Облачность Clear
Давление 1016
Изменить -
Необработанный KILG 211251Z 00000KT 8SM CLR 26/21 A3003 RMK AO2 SLP169 T02560206

MVFR

23.3°C / 20°C

[Больше]
Ветер variable 3kt
Видимость 8000m
Погода Haze
Облачность Vertical Visibility of 0ft.
Давление 1016
Изменить -
Необработанный KILG 211151Z VRB03KT 5SM HZ CLR 23/20 A3003 RMK AO2 SLP168 T02330200 10233 20200 53028

TAF для Wilmington Manor (KILG)

From till


From till Wind 210º 5kt. Visibility 10km or more. Scattered Clouds 20000ft.
From till Wind 230º 9kt. Visibility 10km or more. Few Clouds 12000ft.
From till Wind 240º 10kt. Visibility 10km or more. in the Vicinity Thunderstorm . Broken Clouds 7000ft.
From till Wind 310º 5kt. Visibility 10km or more. Broken Clouds 10000ft.

Необработанный: KILG 220522Z 2206/2306 21005KT P6SM SCT200 FM221400 23009KT P6SM FEW120 FM222200 24010KT P6SM VCTS BKN070CB FM230200 31005KT P6SM BKN100

Радарный и сверхкраткосрочный прогноз осадков для Wilmington Manor

Морось
Незначительные
Умеренные
Сильные
Очень Сильные
Град

Индикатор местности находится на Wilmington Manor. Анимация показывает радар осадков за последний час, а также прогноз погоды для 1h. Морось или небольшой снег могут быть невидимы для радара. Интенсивность осадков имеет цветовую кодировку - от светло-голубого до оранжевого.

Текущие спутниковые изображения для Wilmington Manor, США

Указатель местности находится на Wilmington Manor. [Больше]

Спутниковое изображение в реальном времени сочетает в себе видимый свет в дневное время с инфракрасным излучением в ночное время. Ночью изображение получается не темным, так как инфракрасное излучение может обнаружить разницу температур. К сожалению, низкие облака и туман трудно отличить от температуры у поверхности земли и поэтому могут быть почти незаметны ночью. Спутниковые снимки Meteosat для Европы обновляются каждые 5 минут в режиме реального времени.Снимки GOES-16/GOES-17 (Северная и Южная Америка) и Химавари (Азия) обновляются каждые 10 минут.

Обратно к последним данным